createdAt,value
2022-08-26T00:02:03.805Z,99591.22
2022-08-26T00:04:34.199Z,99594.00
2022-08-26T00:07:01.147Z,99597.69
2022-08-26T00:09:29.289Z,99598.72
2022-08-26T00:11:56.319Z,99604.00
2022-08-26T00:14:30.818Z,99603.53
2022-08-26T00:16:58.692Z,99609.75
2022-08-26T00:19:25.983Z,99607.59
2022-08-26T00:21:53.160Z,99612.78
2022-08-26T00:24:21.721Z,99603.53
2022-08-26T00:26:50.112Z,99613.16
2022-08-26T00:29:19.012Z,99611.75
2022-08-26T00:31:48.200Z,99611.84
2022-08-26T00:34:16.655Z,99614.63
2022-08-26T00:36:46.769Z,99610.56
2022-08-26T00:39:14.154Z,99616.00
2022-08-26T00:41:41.833Z,99616.94
2022-08-26T00:44:11.192Z,99623.97
2022-08-26T00:46:46.841Z,99625.09
2022-08-26T00:49:20.131Z,99613.97
2022-08-26T00:51:55.305Z,99609.81
2022-08-26T00:54:27.613Z,99621.19
2022-08-26T00:57:16.506Z,99618.50
2022-08-26T00:59:48.947Z,99623.66
2022-08-26T01:02:20.858Z,99622.84
2022-08-26T01:04:55.902Z,99618.50
2022-08-26T01:07:26.431Z,99623.50
2022-08-26T01:09:55.682Z,99626.09
2022-08-26T01:12:27.689Z,99625.34
2022-08-26T01:14:56.047Z,99635.50
2022-08-26T01:17:22.920Z,99634.59
2022-08-26T01:20:08.845Z,99644.97
2022-08-26T01:22:59.425Z,99634.69
2022-08-26T01:25:33.269Z,99630.28
2022-08-26T01:28:06.369Z,99637.94
2022-08-26T01:30:36.867Z,99643.03
2022-08-26T01:33:10.051Z,99640.53
2022-08-26T01:35:39.267Z,99643.84
2022-08-26T01:38:07.250Z,99639.69
2022-08-26T01:40:43.167Z,99643.03
2022-08-26T01:43:23.380Z,99634.50
2022-08-26T01:45:54.597Z,99638.03
2022-08-26T01:48:28.484Z,99633.88
2022-08-26T01:51:01.784Z,99631.28
2022-08-26T01:53:30.095Z,99639.88
2022-08-26T01:56:02.322Z,99645.06
2022-08-26T01:58:44.664Z,99646.06
2022-08-26T02:01:11.939Z,99652.00
2022-08-26T02:04:01.759Z,99646.06
2022-08-26T02:06:29.645Z,99645.97
2022-08-26T02:09:01.909Z,99657.09
2022-08-26T02:11:29.183Z,99660.59
2022-08-26T02:14:02.887Z,99652.00
2022-08-26T02:16:37.862Z,99660.69
2022-08-26T02:19:16.975Z,99667.53
2022-08-26T02:21:51.022Z,99662.53
2022-08-26T02:24:23.735Z,99663.38
2022-08-26T02:26:57.355Z,99661.78
2022-08-26T02:29:37.417Z,99660.13
2022-08-26T02:32:11.133Z,99662.72
2022-08-26T02:34:38.282Z,99661.94
2022-08-26T02:37:13.764Z,99661.94
2022-08-26T02:39:44.462Z,99665.41
2022-08-26T02:42:13.226Z,99655.19
2022-08-26T02:44:40.634Z,99659.56
2022-08-26T02:47:08.551Z,99659.66
2022-08-26T02:49:37.783Z,99664.72
2022-08-26T02:52:04.756Z,99652.88
2022-08-26T02:54:31.810Z,99648.53
2022-08-26T02:57:02.959Z,99649.53
2022-08-26T02:59:34.380Z,99643.63
2022-08-26T03:02:02.018Z,99640.28
2022-08-26T03:04:30.477Z,99648.81
2022-08-26T03:07:00.349Z,99647.25
2022-08-26T03:09:30.748Z,99646.47
2022-08-26T03:11:58.189Z,99654.16
2022-08-26T03:14:25.462Z,99659.44
2022-08-26T03:16:54.753Z,99648.25
2022-08-26T03:19:25.365Z,99652.50
2022-08-26T03:21:57.818Z,99648.25
2022-08-26T03:24:28.922Z,99654.34
2022-08-26T03:26:58.710Z,99656.00
2022-08-26T03:29:44.094Z,99650.06
2022-08-26T03:32:18.931Z,99652.84
2022-08-26T03:34:46.376Z,99646.88
2022-08-26T03:37:15.226Z,99653.75
2022-08-26T03:39:42.054Z,99650.38
2022-08-26T03:42:09.137Z,99653.84
2022-08-26T03:44:40.117Z,99652.06
2022-08-26T03:47:09.417Z,99649.66
2022-08-26T03:49:42.090Z,99652.97
2022-08-26T03:52:09.086Z,99652.25
2022-08-26T03:54:36.186Z,99652.25
2022-08-26T03:57:03.643Z,99653.16
2022-08-26T03:59:32.124Z,99649.00
2022-08-26T04:02:01.323Z,99655.09
2022-08-26T04:04:28.220Z,99658.63
2022-08-26T04:06:59.410Z,99654.47
2022-08-26T04:09:27.984Z,99654.50
2022-08-26T04:11:55.928Z,99651.94
2022-08-26T04:14:25.904Z,99653.69
2022-08-26T04:16:55.679Z,99659.69
2022-08-26T04:19:25.426Z,99651.28
2022-08-26T04:21:53.459Z,99659.06
2022-08-26T04:24:24.332Z,99655.72
2022-08-26T04:26:56.336Z,99660.78
2022-08-26T04:29:26.859Z,99652.38
2022-08-26T04:31:55.918Z,99660.88
2022-08-26T04:34:27.221Z,99660.88
2022-08-26T04:36:56.762Z,99656.56
2022-08-26T04:39:24.121Z,99660.16
2022-08-26T04:41:54.728Z,99656.72
2022-08-26T04:44:26.160Z,99655.88
2022-08-26T04:46:54.327Z,99665.38
2022-08-26T04:49:22.989Z,99664.56
2022-08-26T04:51:53.233Z,99661.22
2022-08-26T04:54:20.652Z,99660.41
2022-08-26T04:56:49.598Z,99662.16
2022-08-26T04:59:18.129Z,99663.81
2022-08-26T05:01:50.724Z,99663.06
2022-08-26T05:04:21.332Z,99659.56
2022-08-26T05:06:50.183Z,99665.66
2022-08-26T05:09:18.504Z,99669.16
2022-08-26T05:11:48.572Z,99669.06
2022-08-26T05:14:20.323Z,99670.84
2022-08-26T05:16:47.757Z,99659.72
2022-08-26T05:19:19.043Z,99669.25
2022-08-26T05:21:49.755Z,99664.00
2022-08-26T05:24:17.842Z,99665.66
2022-08-26T05:26:47.228Z,99667.34
2022-08-26T05:29:18.262Z,99659.72
2022-08-26T05:31:46.790Z,99668.16
2022-08-26T05:34:14.500Z,99665.66
2022-08-26T05:36:41.390Z,99667.41
2022-08-26T05:39:10.595Z,99669.75
2022-08-26T05:41:42.147Z,99671.41
2022-08-26T05:44:14.007Z,99674.75
2022-08-26T05:46:41.713Z,99660.88
2022-08-26T05:49:12.786Z,99677.16
2022-08-26T05:51:41.742Z,99676.16
2022-08-26T05:54:11.597Z,99676.06
2022-08-26T05:56:42.520Z,99671.72
2022-08-26T05:59:14.684Z,99679.38
2022-08-26T06:01:43.779Z,99687.91
2022-08-26T06:04:11.565Z,99693.09
2022-08-26T06:06:41.468Z,99689.59
2022-08-26T06:09:10.933Z,99694.69
2022-08-26T06:11:41.669Z,99694.56
2022-08-26T06:14:12.078Z,99699.56
2022-08-26T06:16:45.213Z,99704.75
2022-08-26T06:19:15.578Z,99700.34
2022-08-26T06:21:47.280Z,99698.56
2022-08-26T06:24:38.936Z,99697.69
2022-08-26T06:27:13.412Z,99695.94
2022-08-26T06:29:40.301Z,99701.16
2022-08-26T06:32:09.634Z,99695.84
2022-08-26T06:34:38.876Z,99700.84
2022-08-26T06:37:06.672Z,99705.13
2022-08-26T06:39:35.862Z,99705.94
2022-08-26T06:42:08.281Z,99709.28
2022-08-26T06:44:35.150Z,99717.63
2022-08-26T06:47:02.091Z,99710.78
2022-08-26T06:49:31.923Z,99708.94
2022-08-26T06:51:59.112Z,99712.34
2022-08-26T06:54:28.323Z,99709.66
2022-08-26T06:56:57.805Z,99714.84
2022-08-26T06:59:25.157Z,99715.59
2022-08-26T07:01:52.432Z,99714.59
2022-08-26T07:04:23.207Z,99713.69
2022-08-26T07:06:53.984Z,99713.59
2022-08-26T07:09:29.253Z,99715.22
2022-08-26T07:11:56.486Z,99718.47
2022-08-26T07:14:25.032Z,99705.44
2022-08-26T07:16:53.493Z,99718.22
2022-08-26T07:19:31.151Z,99710.38
2022-08-26T07:22:06.519Z,99717.94
2022-08-26T07:24:38.954Z,99714.44
2022-08-26T07:27:09.725Z,99710.84
2022-08-26T07:29:39.422Z,99718.53
2022-08-26T07:32:07.954Z,99716.69
2022-08-26T07:34:39.466Z,99719.09
2022-08-26T07:37:09.691Z,99724.19
2022-08-26T07:39:38.629Z,99719.75
2022-08-26T07:42:08.952Z,99723.25
2022-08-26T07:44:40.595Z,99731.50
2022-08-26T07:47:25.781Z,99724.38
2022-08-26T07:49:56.121Z,99727.63
2022-08-26T07:52:26.967Z,99727.47
2022-08-26T07:54:58.313Z,99734.16
2022-08-26T07:57:27.477Z,99731.41
2022-08-26T07:59:55.591Z,99738.78
2022-08-26T08:02:24.475Z,99725.72
2022-08-26T08:04:58.344Z,99727.03
2022-08-26T08:07:44.232Z,99725.25
2022-08-26T08:10:23.016Z,99723.53
2022-08-26T08:12:57.700Z,99734.34
2022-08-26T08:15:32.135Z,99718.59
2022-08-26T08:18:00.967Z,99724.44
2022-08-26T08:20:29.985Z,99722.56
2022-08-26T08:22:57.255Z,99724.25
2022-08-26T08:25:24.754Z,99727.50
2022-08-26T08:27:51.734Z,99738.53
2022-08-26T08:30:22.796Z,99734.25
2022-08-26T08:32:50.491Z,99728.06
2022-08-26T08:35:22.344Z,99728.06
2022-08-26T08:37:55.298Z,99742.50
2022-08-26T08:40:26.405Z,99734.72
2022-08-26T08:43:37.706Z,99732.03
2022-08-26T08:46:14.130Z,99726.66
2022-08-26T08:48:52.570Z,99731.66
2022-08-26T08:51:34.171Z,99731.59
2022-08-26T08:54:02.732Z,99729.00
2022-08-26T08:56:53.028Z,99736.50
2022-08-26T08:59:25.323Z,99740.03
2022-08-26T09:01:54.909Z,99740.75
2022-08-26T09:04:38.283Z,99748.53
2022-08-26T09:07:11.730Z,99752.06
2022-08-26T09:09:57.190Z,99751.13
2022-08-26T09:12:32.330Z,99749.38
2022-08-26T09:15:21.022Z,99748.63
2022-08-26T09:18:30.342Z,99750.59
2022-08-26T09:21:05.739Z,99755.59
2022-08-26T09:23:41.858Z,99756.41
2022-08-26T09:26:38.208Z,99758.91
2022-08-26T09:31:49.632Z,99759.75
2022-08-26T09:34:27.630Z,99763.81
2022-08-26T09:36:59.963Z,99756.84
2022-08-26T09:39:38.502Z,99756.84
2022-08-26T09:42:14.205Z,99767.06
2022-08-26T09:45:07.148Z,99761.88
2022-08-26T09:47:51.586Z,99765.19
2022-08-26T09:50:53.323Z,99762.81
2022-08-26T09:53:30.488Z,99764.47
2022-08-26T09:56:27.576Z,99757.72
2022-08-26T09:58:57.236Z,99772.06
2022-08-26T10:01:24.223Z,99769.47
2022-08-26T10:03:51.964Z,99765.94
2022-08-26T10:06:20.935Z,99764.19
2022-08-26T10:08:54.302Z,99760.75
2022-08-26T10:11:48.015Z,99771.97
2022-08-26T10:14:25.196Z,99765.94
2022-08-26T10:17:10.104Z,99760.75
2022-08-26T10:19:57.699Z,99762.53
2022-08-26T10:22:46.898Z,99765.13
2022-08-26T10:25:24.802Z,99762.53
2022-08-26T10:28:22.242Z,99759.94
2022-08-26T10:31:17.260Z,99764.28
2022-08-26T10:33:47.072Z,99758.25
2022-08-26T10:37:05.090Z,99746.97
2022-08-26T10:39:58.966Z,99754.09
2022-08-26T10:42:58.509Z,99750.66
2022-08-26T10:45:33.152Z,99756.38
2022-08-26T10:48:00.098Z,99748.50
2022-08-26T10:50:47.625Z,99744.06
2022-08-26T10:53:39.929Z,99742.22
2022-08-26T10:56:56.776Z,99748.25
2022-08-26T10:59:54.712Z,99750.72
2022-08-26T11:02:33.626Z,99746.00
2022-08-26T11:05:06.568Z,99742.38
2022-08-26T11:07:45.746Z,99746.38
2022-08-26T11:10:18.714Z,99752.91
2022-08-26T11:12:50.397Z,99736.22
2022-08-26T11:15:24.364Z,99740.00
2022-08-26T11:17:51.576Z,99734.53
2022-08-26T11:20:46.300Z,99739.72
2022-08-26T11:23:23.039Z,99744.53
2022-08-26T11:26:08.786Z,99748.25
2022-08-26T11:28:50.922Z,99744.09
2022-08-26T11:31:25.332Z,99741.56
2022-08-26T11:34:08.855Z,99740.94
2022-08-26T11:36:46.385Z,99749.53
2022-08-26T11:39:23.074Z,99749.53
2022-08-26T11:41:54.511Z,99750.38
2022-08-26T11:44:26.646Z,99754.56
2022-08-26T11:47:00.078Z,99743.25
2022-08-26T11:49:29.072Z,99747.34
2022-08-26T11:52:21.992Z,99750.66
2022-08-26T11:55:11.953Z,99746.19
2022-08-26T11:57:51.428Z,99749.50
2022-08-26T12:00:49.198Z,99755.25
2022-08-26T12:03:25.857Z,99758.50
2022-08-26T12:05:57.243Z,99752.25
2022-08-26T12:08:31.127Z,99758.00
2022-08-26T12:11:09.710Z,99753.34
2022-08-26T12:13:39.617Z,99755.19
2022-08-26T12:16:07.625Z,99759.47
2022-08-26T12:18:38.625Z,99763.53
2022-08-26T12:21:24.504Z,99749.81
2022-08-26T12:23:58.493Z,99754.81
2022-08-26T12:26:37.521Z,99753.78
2022-08-26T12:29:19.886Z,99748.56
2022-08-26T12:32:13.863Z,99751.38
2022-08-26T12:34:44.181Z,99754.47
2022-08-26T12:37:15.408Z,99756.06
2022-08-26T12:39:44.881Z,99751.81
2022-08-26T12:42:17.094Z,99755.13
2022-08-26T12:44:53.991Z,99750.03
2022-08-26T12:47:43.950Z,99754.41
2022-08-26T12:50:21.257Z,99752.72
2022-08-26T12:53:10.892Z,99755.63
2022-08-26T12:55:50.756Z,99741.06
2022-08-26T12:58:29.900Z,99749.59
2022-08-26T13:01:09.022Z,99751.47
2022-08-26T13:03:40.375Z,99757.41
2022-08-26T13:06:22.360Z,99756.25
2022-08-26T13:08:59.654Z,99742.34
2022-08-26T13:11:53.105Z,99751.59
2022-08-26T13:14:25.805Z,99742.03
2022-08-26T13:16:53.775Z,99740.06
2022-08-26T13:19:28.910Z,99731.88
2022-08-26T13:22:00.624Z,99726.47
2022-08-26T13:24:41.903Z,99731.28
2022-08-26T13:27:13.465Z,99723.28
2022-08-26T13:29:43.011Z,99727.16
2022-08-26T13:32:10.837Z,99722.47
2022-08-26T13:34:47.125Z,99718.63
2022-08-26T13:37:19.791Z,99722.66
2022-08-26T13:39:46.855Z,99714.75
2022-08-26T13:42:14.098Z,99718.91
2022-08-26T13:44:45.349Z,99719.88
2022-08-26T13:47:12.491Z,99718.31
2022-08-26T13:49:42.520Z,99713.19
2022-08-26T13:52:11.394Z,99721.44
2022-08-26T13:54:38.333Z,99718.22
2022-08-26T13:57:05.999Z,99716.13
2022-08-26T13:59:33.087Z,99720.16
2022-08-26T14:02:03.885Z,99715.34
2022-08-26T14:04:33.802Z,99719.53
2022-08-26T14:07:00.958Z,99715.69
2022-08-26T14:09:27.923Z,99721.03
2022-08-26T14:11:55.381Z,99723.94
2022-08-26T14:14:25.172Z,99720.81
2022-08-26T14:16:59.336Z,99718.50
2022-08-26T14:19:30.233Z,99715.63
2022-08-26T14:21:58.885Z,99733.72
2022-08-26T14:24:26.052Z,99709.56
2022-08-26T14:26:53.088Z,99727.66
2022-08-26T14:29:20.035Z,99721.94
2022-08-26T14:31:47.143Z,99725.50
2022-08-26T14:34:14.739Z,99723.94
2022-08-26T14:36:44.254Z,99720.59
2022-08-26T14:39:13.931Z,99719.16
2022-08-26T14:41:53.733Z,99715.91
2022-08-26T14:47:14.534Z,99714.16
2022-08-26T14:49:45.180Z,99716.94
2022-08-26T14:52:12.124Z,99726.63
2022-08-26T14:54:43.062Z,99730.97
2022-08-26T14:57:17.274Z,99719.75
2022-08-26T14:59:50.012Z,99717.25
2022-08-26T15:02:32.772Z,99719.97
2022-08-26T15:05:02.736Z,99733.69
2022-08-26T15:07:30.336Z,99732.97
2022-08-26T15:09:58.281Z,99734.00
2022-08-26T15:12:27.462Z,99737.78
2022-08-26T15:14:59.377Z,99742.38
2022-08-26T15:17:26.504Z,99739.34
2022-08-26T15:19:53.552Z,99742.25
2022-08-26T15:22:23.251Z,99747.81
2022-08-26T15:24:53.636Z,99749.19
2022-08-26T15:27:21.134Z,99743.00
2022-08-26T15:29:48.265Z,99739.53
2022-08-26T15:32:24.232Z,99741.84
2022-08-26T15:34:53.136Z,99737.34
2022-08-26T15:37:20.084Z,99737.94
2022-08-26T15:39:47.837Z,99724.78
2022-08-26T15:42:15.077Z,99725.09
2022-08-26T15:44:45.935Z,99724.63
2022-08-26T15:47:15.835Z,99736.97
2022-08-26T15:49:42.967Z,99736.31
2022-08-26T15:52:10.349Z,99722.06
2022-08-26T15:54:39.431Z,99719.72
2022-08-26T15:57:12.415Z,99715.75
2022-08-26T15:59:42.717Z,99718.50
2022-08-26T16:02:18.659Z,99717.78
2022-08-26T16:04:47.476Z,99718.81
2022-08-26T16:07:17.408Z,99708.69
2022-08-26T16:09:44.459Z,99707.88
2022-08-26T16:12:12.960Z,99698.53
2022-08-26T16:14:41.010Z,99704.72
2022-08-26T16:17:08.362Z,99710.00
2022-08-26T16:19:38.273Z,99708.25
2022-08-26T16:22:13.514Z,99710.94
2022-08-26T16:27:35.945Z,99699.34
2022-08-26T16:30:07.000Z,99703.72
2022-08-26T16:32:36.934Z,99710.84
2022-08-26T16:35:07.544Z,99689.44
2022-08-26T16:37:38.977Z,99698.16
2022-08-26T16:40:09.642Z,99691.41
2022-08-26T16:42:40.853Z,99694.81
2022-08-26T16:45:08.607Z,99701.78
2022-08-26T16:47:41.926Z,99705.38
2022-08-26T16:50:10.136Z,99710.56
2022-08-26T16:52:40.220Z,99713.06
2022-08-26T16:55:14.431Z,99710.38
2022-08-26T16:57:47.288Z,99706.97
2022-08-26T17:00:25.044Z,99707.69
2022-08-26T17:02:52.317Z,99708.78
2022-08-26T17:05:19.352Z,99720.84
2022-08-26T17:07:48.857Z,99725.91
2022-08-26T17:10:15.752Z,99718.25
2022-08-26T17:12:42.925Z,99718.25
2022-08-26T17:15:11.650Z,99718.34
2022-08-26T17:17:42.099Z,99731.47
2022-08-26T17:20:14.727Z,99724.06
2022-08-26T17:22:47.575Z,99730.22
2022-08-26T17:25:21.279Z,99729.56
2022-08-26T17:27:48.563Z,99732.34
2022-08-26T17:30:17.217Z,99734.19
2022-08-26T17:32:46.707Z,99734.38
2022-08-26T17:35:16.024Z,99737.78
2022-08-26T17:37:44.606Z,99742.06
2022-08-26T17:40:18.754Z,99737.13
2022-08-26T17:42:46.167Z,99737.97
2022-08-26T17:45:13.246Z,99742.31
2022-08-26T17:48:03.293Z,99743.50
2022-08-26T17:50:30.743Z,99756.38
2022-08-26T17:52:57.811Z,99743.59
2022-08-26T17:55:24.833Z,99745.44
2022-08-26T17:57:51.867Z,99739.53
2022-08-26T18:00:26.378Z,99743.03
2022-08-26T18:02:57.161Z,99736.38
2022-08-26T18:05:26.867Z,99744.13
2022-08-26T18:08:05.997Z,99744.28
2022-08-26T18:10:38.981Z,99746.25
2022-08-26T18:13:05.979Z,99746.31
2022-08-26T18:15:33.139Z,99745.59
2022-08-26T18:18:04.435Z,99750.94
2022-08-26T18:20:31.605Z,99745.19
2022-08-26T18:22:59.518Z,99745.53
2022-08-26T18:25:28.479Z,99750.91
2022-08-26T18:27:55.765Z,99752.91
2022-08-26T18:30:25.832Z,99739.50
2022-08-26T18:32:53.253Z,99746.63
2022-08-26T18:35:21.544Z,99747.69
2022-08-26T18:37:48.981Z,99744.47
2022-08-26T18:40:28.622Z,99747.38
2022-08-26T18:42:55.567Z,99751.50
2022-08-26T18:45:22.524Z,99756.22
2022-08-26T18:47:52.006Z,99755.53
2022-08-26T18:50:19.273Z,99765.59
2022-08-26T18:52:47.760Z,99761.59
2022-08-26T18:55:20.019Z,99772.09
2022-08-26T18:57:51.609Z,99773.34
2022-08-26T19:00:21.488Z,99773.50
2022-08-26T19:03:00.763Z,99774.50
2022-08-26T19:05:40.886Z,99767.09
2022-08-26T19:08:10.260Z,99772.25
2022-08-26T19:10:44.527Z,99775.84
2022-08-26T19:13:24.173Z,99771.66
2022-08-26T19:15:56.812Z,99774.34
2022-08-26T19:18:26.152Z,99763.47
2022-08-26T19:20:55.931Z,99766.19
2022-08-26T19:23:31.898Z,99761.19
2022-08-26T19:26:04.451Z,99763.00
2022-08-26T19:28:32.606Z,99766.69
2022-08-26T19:31:02.732Z,99779.59
2022-08-26T19:33:36.797Z,99785.78
2022-08-26T19:36:16.628Z,99785.00
2022-08-26T19:38:48.451Z,99776.72
2022-08-26T19:41:20.558Z,99775.00
2022-08-26T19:43:52.968Z,99780.31
2022-08-26T19:46:29.487Z,99778.88
2022-08-26T19:49:02.763Z,99779.78
2022-08-26T19:51:44.470Z,99778.28
2022-08-26T19:54:17.560Z,99775.88
2022-08-26T19:56:49.224Z,99776.69
2022-08-26T19:59:18.905Z,99780.19
2022-08-26T20:01:46.570Z,99778.53
2022-08-26T20:04:44.523Z,99775.19
2022-08-26T20:07:16.504Z,99782.16
2022-08-26T20:09:52.153Z,99782.13
2022-08-26T20:12:22.459Z,99773.59
2022-08-26T20:14:54.729Z,99777.94
2022-08-26T20:17:24.750Z,99774.41
2022-08-26T20:20:33.436Z,99773.84
2022-08-26T20:23:08.583Z,99780.75
2022-08-26T20:25:46.400Z,99768.91
2022-08-26T20:28:44.270Z,99774.88
2022-08-26T20:31:14.329Z,99768.13
2022-08-26T20:33:47.811Z,99766.41
2022-08-26T20:36:16.087Z,99767.31
2022-08-26T20:38:43.313Z,99768.13
2022-08-26T20:41:15.409Z,99767.22
2022-08-26T20:43:43.438Z,99773.38
2022-08-26T20:46:18.819Z,99765.78
2022-08-26T20:48:48.732Z,99763.78
2022-08-26T20:51:17.767Z,99765.16
2022-08-26T20:53:48.439Z,99766.41
2022-08-26T20:56:17.981Z,99774.22
2022-08-26T20:58:45.077Z,99776.13
2022-08-26T21:01:21.650Z,99776.22
2022-08-26T21:03:58.198Z,99770.28
2022-08-26T21:06:25.366Z,99776.47
2022-08-26T21:08:53.442Z,99768.72
2022-08-26T21:11:21.531Z,99767.06
2022-08-26T21:14:04.269Z,99766.31
2022-08-26T21:16:36.682Z,99769.13
2022-08-26T21:19:06.533Z,99778.53
2022-08-26T21:21:34.393Z,99779.44
2022-08-26T21:24:01.902Z,99783.09
2022-08-26T21:26:33.984Z,99780.50
2022-08-26T21:29:02.722Z,99780.69
2022-08-26T21:31:32.952Z,99781.44
2022-08-26T21:34:00.504Z,99776.88
2022-08-26T21:36:27.422Z,99793.75
2022-08-26T21:38:58.878Z,99782.03
2022-08-26T21:41:27.584Z,99781.91
2022-08-26T21:43:59.270Z,99768.81
2022-08-26T21:46:37.376Z,99765.78
2022-08-26T21:49:08.678Z,99772.69
2022-08-26T21:51:46.910Z,99782.28
2022-08-26T21:54:14.966Z,99773.91
2022-08-26T21:56:49.799Z,99770.56
2022-08-26T21:59:19.183Z,99780.88
2022-08-26T22:01:46.564Z,99772.31
2022-08-26T22:04:22.774Z,99777.63
2022-08-26T22:06:53.845Z,99767.38
2022-08-26T22:09:28.329Z,99770.09
2022-08-26T22:11:56.895Z,99772.00
2022-08-26T22:14:30.992Z,99774.03
2022-08-26T22:17:02.587Z,99769.19
2022-08-26T22:19:33.989Z,99773.69
2022-08-26T22:22:02.232Z,99773.16
2022-08-26T22:24:29.384Z,99772.44
2022-08-26T22:26:56.752Z,99777.78
2022-08-26T22:29:25.141Z,99778.50
2022-08-26T22:31:53.656Z,99783.84
2022-08-26T22:34:22.877Z,99789.00
2022-08-26T22:36:50.780Z,99779.66
2022-08-26T22:39:23.339Z,99780.56
2022-08-26T22:41:51.390Z,99783.31
2022-08-26T22:44:20.708Z,99785.81
2022-08-26T22:46:48.978Z,99784.97
2022-08-26T22:49:16.552Z,99785.03
2022-08-26T22:51:46.663Z,99781.72
2022-08-26T22:54:14.553Z,99785.28
2022-08-26T22:56:44.645Z,99786.25
2022-08-26T22:59:14.715Z,99788.06
2022-08-26T23:01:47.342Z,99787.38
2022-08-26T23:04:14.584Z,99792.59
2022-08-26T23:06:47.793Z,99784.19
2022-08-26T23:09:17.926Z,99791.94
2022-08-26T23:11:49.722Z,99792.84
2022-08-26T23:14:18.773Z,99794.59
2022-08-26T23:16:53.267Z,99797.34
2022-08-26T23:19:24.034Z,99788.00
2022-08-26T23:21:51.492Z,99800.13
2022-08-26T23:24:18.777Z,99796.78
2022-08-26T23:26:46.759Z,99800.28
2022-08-26T23:29:15.659Z,99807.09
2022-08-26T23:31:43.103Z,99806.25
2022-08-26T23:34:29.900Z,99803.75
2022-08-26T23:36:58.508Z,99798.66
2022-08-26T23:39:26.271Z,99802.06
2022-08-26T23:41:53.394Z,99801.09
2022-08-26T23:44:20.879Z,99794.34
2022-08-26T23:46:48.044Z,99796.16
2022-08-26T23:49:14.971Z,99790.22
2022-08-26T23:52:00.346Z,99803.91
2022-08-26T23:54:27.511Z,99791.91
2022-08-26T23:56:57.613Z,99792.06
2022-08-26T23:59:24.669Z,99802.38
